sensor_id;sensor_type;location;lat;lon;timestamp;pressure;altitude;pressure_sealevel;temperature;humidity
68230;BME280;55048;52.220;5.160;2022-12-24T00:02:09;100404.75;;;11.28;85.57
68230;BME280;55048;52.220;5.160;2022-12-24T00:04:34;100407.25;;;11.35;85.13
68230;BME280;55048;52.220;5.160;2022-12-24T00:07:00;100409.06;;;11.29;85.08
68230;BME280;55048;52.220;5.160;2022-12-24T00:09:25;100410.28;;;11.21;85.13
68230;BME280;55048;52.220;5.160;2022-12-24T00:11:51;100431.78;;;11.42;84.83
68230;BME280;55048;52.220;5.160;2022-12-24T00:14:16;100420.44;;;11.24;85.33
68230;BME280;55048;52.220;5.160;2022-12-24T00:16:41;100414.38;;;11.29;84.96
68230;BME280;55048;52.220;5.160;2022-12-24T00:19:07;100426.38;;;11.32;84.82
68230;BME280;55048;52.220;5.160;2022-12-24T00:21:32;100424.75;;;11.31;84.65
68230;BME280;55048;52.220;5.160;2022-12-24T00:23:57;100440.59;;;11.42;84.83
68230;BME280;55048;52.220;5.160;2022-12-24T00:26:23;100420.94;;;11.21;85.41
68230;BME280;55048;52.220;5.160;2022-12-24T00:28:48;100431.63;;;11.27;85.22
68230;BME280;55048;52.220;5.160;2022-12-24T00:31:17;100450.63;;;11.35;84.98
68230;BME280;55048;52.220;5.160;2022-12-24T00:33:44;100443.13;;;11.32;85.32
68230;BME280;55048;52.220;5.160;2022-12-24T00:36:10;100442.84;;;11.29;85.15
68230;BME280;55048;52.220;5.160;2022-12-24T00:38:36;100453.75;;;11.27;85.50
68230;BME280;55048;52.220;5.160;2022-12-24T00:41:03;100456.16;;;11.29;85.38
68230;BME280;55048;52.220;5.160;2022-12-24T00:43:30;100446.75;;;11.21;85.41
68230;BME280;55048;52.220;5.160;2022-12-24T00:45:55;100451.50;;;11.19;85.44
68230;BME280;55048;52.220;5.160;2022-12-24T00:48:21;100470.97;;;11.19;85.20
68230;BME280;55048;52.220;5.160;2022-12-24T00:50:48;100470.47;;;11.22;85.75
68230;BME280;55048;52.220;5.160;2022-12-24T00:53:14;100450.50;;;10.98;85.85
68230;BME280;55048;52.220;5.160;2022-12-24T00:55:39;100492.56;;;11.23;85.30
68230;BME280;55048;52.220;5.160;2022-12-24T00:58:05;100472.47;;;11.10;85.58
68230;BME280;55048;52.220;5.160;2022-12-24T01:00:30;100500.06;;;11.26;85.38
68230;BME280;55048;52.220;5.160;2022-12-24T01:02:55;100483.16;;;11.15;85.28
68230;BME280;55048;52.220;5.160;2022-12-24T01:05:21;100505.13;;;11.28;85.29
68230;BME280;55048;52.220;5.160;2022-12-24T01:07:47;100510.16;;;11.24;85.47
68230;BME280;55048;52.220;5.160;2022-12-24T01:10:15;100475.19;;;10.93;85.45
68230;BME280;55048;52.220;5.160;2022-12-24T01:12:42;100509.16;;;11.08;85.51
68230;BME280;55048;52.220;5.160;2022-12-24T01:15:09;100518.75;;;11.09;85.58
68230;BME280;55048;52.220;5.160;2022-12-24T01:17:35;100520.13;;;11.12;85.35
68230;BME280;55048;52.220;5.160;2022-12-24T01:20:03;100528.91;;;11.12;85.64
68230;BME280;55048;52.220;5.160;2022-12-24T01:22:29;100528.84;;;11.07;85.41
68230;BME280;55048;52.220;5.160;2022-12-24T01:24:54;100532.88;;;11.10;85.35
68230;BME280;55048;52.220;5.160;2022-12-24T01:27:20;100542.81;;;10.97;85.37
68230;BME280;55048;52.220;5.160;2022-12-24T01:29:45;100532.72;;;10.78;85.54
68230;BME280;55048;52.220;5.160;2022-12-24T01:32:10;100534.84;;;10.81;85.34
68230;BME280;55048;52.220;5.160;2022-12-24T01:34:36;100533.25;;;10.80;85.27
68230;BME280;55048;52.220;5.160;2022-12-24T01:37:01;100537.22;;;10.77;85.46
68230;BME280;55048;52.220;5.160;2022-12-24T01:39:27;100516.75;;;10.61;85.68
68230;BME280;55048;52.220;5.160;2022-12-24T01:41:52;100556.94;;;10.81;85.54
68230;BME280;55048;52.220;5.160;2022-12-24T01:44:41;100571.81;;;10.77;85.84
68230;BME280;55048;52.220;5.160;2022-12-24T01:47:18;100553.41;;;10.76;85.40
68230;BME280;55048;52.220;5.160;2022-12-24T01:49:49;100562.69;;;10.73;85.54
68230;BME280;55048;52.220;5.160;2022-12-24T01:52:20;100562.19;;;10.76;85.43
68230;BME280;55048;52.220;5.160;2022-12-24T01:57:36;100543.69;;;10.47;85.92
68230;BME280;55048;52.220;5.160;2022-12-24T02:00:06;100551.66;;;10.47;85.89
68230;BME280;55048;52.220;5.160;2022-12-24T02:02:33;100560.69;;;10.46;85.72
68230;BME280;55048;52.220;5.160;2022-12-24T02:05:07;100583.97;;;10.56;85.94
68230;BME280;55048;52.220;5.160;2022-12-24T02:07:35;100584.69;;;10.52;86.02
68230;BME280;55048;52.220;5.160;2022-12-24T02:10:01;100560.38;;;10.26;86.10
68230;BME280;55048;52.220;5.160;2022-12-24T02:12:28;100596.03;;;10.30;86.29
68230;BME280;55048;52.220;5.160;2022-12-24T02:14:55;100589.19;;;10.34;86.69
68230;BME280;55048;52.220;5.160;2022-12-24T02:31:27;100594.88;;;10.09;86.58
68230;BME280;55048;52.220;5.160;2022-12-24T02:34:07;100610.81;;;10.09;86.90
68230;BME280;55048;52.220;5.160;2022-12-24T02:36:41;100633.63;;;10.22;86.95
68230;BME280;55048;52.220;5.160;2022-12-24T02:39:12;100607.09;;;10.10;86.69
68230;BME280;55048;52.220;5.160;2022-12-24T02:41:44;100614.50;;;10.08;86.81
68230;BME280;55048;52.220;5.160;2022-12-24T02:44:44;100632.94;;;10.15;87.19
68230;BME280;55048;52.220;5.160;2022-12-24T02:47:13;100601.50;;;9.95;87.15
68230;BME280;55048;52.220;5.160;2022-12-24T02:49:44;100637.38;;;10.09;87.22
68230;BME280;55048;52.220;5.160;2022-12-24T02:54:56;100630.97;;;9.93;87.45
68230;BME280;55048;52.220;5.160;2022-12-24T03:04:03;100653.34;;;9.97;88.24
68230;BME280;55048;52.220;5.160;2022-12-24T03:06:17;100638.94;;;9.93;88.29
68230;BME280;55048;52.220;5.160;2022-12-24T03:09:12;100646.22;;;9.98;88.29
68230;BME280;55048;52.220;5.160;2022-12-24T03:11:45;100616.69;;;9.83;88.22
68230;BME280;55048;52.220;5.160;2022-12-24T03:14:14;100616.69;;;9.83;88.48
68230;BME280;55048;52.220;5.160;2022-12-24T03:16:41;100616.47;;;9.84;88.48
68230;BME280;55048;52.220;5.160;2022-12-24T03:19:06;100637.09;;;9.94;88.17
68230;BME280;55048;52.220;5.160;2022-12-24T03:21:34;100648.97;;;10.03;88.51
68230;BME280;55048;52.220;5.160;2022-12-24T03:24:03;100620.13;;;9.83;88.90
68230;BME280;55048;52.220;5.160;2022-12-24T03:26:30;100619.34;;;9.83;88.48
68230;BME280;55048;52.220;5.160;2022-12-24T03:28:57;100615.88;;;9.82;88.63
68230;BME280;55048;52.220;5.160;2022-12-24T03:31:23;100623.59;;;9.84;88.88
68230;BME280;55048;52.220;5.160;2022-12-24T03:33:49;100655.19;;;9.97;88.90
68230;BME280;55048;52.220;5.160;2022-12-24T03:36:14;100670.06;;;10.10;88.88
68230;BME280;55048;52.220;5.160;2022-12-24T03:38:40;100651.38;;;10.05;88.77
68230;BME280;55048;52.220;5.160;2022-12-24T03:41:05;100647.66;;;10.06;88.47
68230;BME280;55048;52.220;5.160;2022-12-24T03:43:31;100665.59;;;9.99;88.65
68230;BME280;55048;52.220;5.160;2022-12-24T03:45:57;100661.38;;;10.14;88.49
68230;BME280;55048;52.220;5.160;2022-12-24T03:48:22;100652.50;;;10.09;88.64
68230;BME280;55048;52.220;5.160;2022-12-24T03:50:48;100654.97;;;9.99;88.42
68230;BME280;55048;52.220;5.160;2022-12-24T03:53:13;100643.75;;;10.08;88.77
68230;BME280;55048;52.220;5.160;2022-12-24T03:55:39;100678.22;;;10.32;88.76
68230;BME280;55048;52.220;5.160;2022-12-24T03:58:04;100666.69;;;10.26;88.57
68230;BME280;55048;52.220;5.160;2022-12-24T04:00:30;100647.03;;;10.15;88.93
68230;BME280;55048;52.220;5.160;2022-12-24T04:02:55;100610.28;;;9.95;88.85
68230;BME280;55048;52.220;5.160;2022-12-24T04:05:21;100682.81;;;10.36;88.76
68230;BME280;55048;52.220;5.160;2022-12-24T04:07:46;100684.34;;;10.32;89.11
68230;BME280;55048;52.220;5.160;2022-12-24T04:10:13;100666.69;;;10.14;89.16
68230;BME280;55048;52.220;5.160;2022-12-24T04:12:39;100677.88;;;10.28;89.12
68230;BME280;55048;52.220;5.160;2022-12-24T04:15:05;100667.13;;;10.23;89.84
68230;BME280;55048;52.220;5.160;2022-12-24T04:17:31;100663.78;;;10.28;89.16
68230;BME280;55048;52.220;5.160;2022-12-24T04:19:56;100657.88;;;10.26;88.88
68230;BME280;55048;52.220;5.160;2022-12-24T04:22:22;100671.22;;;10.14;91.20
68230;BME280;55048;52.220;5.160;2022-12-24T04:24:47;100655.59;;;10.17;89.81
68230;BME280;55048;52.220;5.160;2022-12-24T04:27:16;100685.22;;;10.38;89.78
68230;BME280;55048;52.220;5.160;2022-12-24T04:29:41;100674.84;;;10.36;89.54
68230;BME280;55048;52.220;5.160;2022-12-24T04:32:07;100701.22;;;10.55;89.68
68230;BME280;55048;52.220;5.160;2022-12-24T04:34:34;100667.34;;;10.33;89.67
68230;BME280;55048;52.220;5.160;2022-12-24T04:36:59;100676.91;;;10.34;89.80
68230;BME280;55048;52.220;5.160;2022-12-24T04:39:25;100684.00;;;10.29;90.27
68230;BME280;55048;52.220;5.160;2022-12-24T04:41:50;100692.50;;;10.42;90.23
68230;BME280;55048;52.220;5.160;2022-12-24T04:44:16;100706.53;;;10.55;90.29
68230;BME280;55048;52.220;5.160;2022-12-24T04:46:41;100664.94;;;10.32;90.47
68230;BME280;55048;52.220;5.160;2022-12-24T04:49:06;100677.34;;;10.43;90.35
68230;BME280;55048;52.220;5.160;2022-12-24T04:51:32;100694.44;;;10.47;91.52
68230;BME280;55048;52.220;5.160;2022-12-24T04:53:58;100701.69;;;10.52;91.15
68230;BME280;55048;52.220;5.160;2022-12-24T04:56:25;100717.59;;;10.63;91.17
68230;BME280;55048;52.220;5.160;2022-12-24T04:58:51;100691.22;;;10.45;91.12
68230;BME280;55048;52.220;5.160;2022-12-24T05:01:22;100706.22;;;10.51;90.93
68230;BME280;55048;52.220;5.160;2022-12-24T05:03:49;100720.00;;;10.65;91.17
68230;BME280;55048;52.220;5.160;2022-12-24T05:06:18;100713.38;;;10.51;91.91
68230;BME280;55048;52.220;5.160;2022-12-24T05:08:44;100698.47;;;10.50;91.62
68230;BME280;55048;52.220;5.160;2022-12-24T05:11:10;100691.78;;;10.47;91.76
68230;BME280;55048;52.220;5.160;2022-12-24T05:13:39;100688.31;;;10.46;91.45
68230;BME280;55048;52.220;5.160;2022-12-24T05:16:06;100713.91;;;10.64;91.44
68230;BME280;55048;52.220;5.160;2022-12-24T05:18:31;100671.22;;;10.42;91.48
68230;BME280;55048;52.220;5.160;2022-12-24T05:20:57;100683.09;;;10.52;91.16
68230;BME280;55048;52.220;5.160;2022-12-24T05:23:23;100718.84;;;10.72;91.41
68230;BME280;55048;52.220;5.160;2022-12-24T05:26:17;100723.31;;;10.72;91.34
68230;BME280;55048;52.220;5.160;2022-12-24T05:28:54;100703.63;;;10.56;91.32
68230;BME280;55048;52.220;5.160;2022-12-24T05:31:22;100723.09;;;10.73;91.75
68230;BME280;55048;52.220;5.160;2022-12-24T05:33:48;100706.13;;;10.63;91.43
68230;BME280;55048;52.220;5.160;2022-12-24T05:36:14;100730.75;;;10.70;91.96
68230;BME280;55048;52.220;5.160;2022-12-24T05:38:40;100730.50;;;10.71;91.71
68230;BME280;55048;52.220;5.160;2022-12-24T05:41:05;100732.97;;;10.61;92.01
68230;BME280;55048;52.220;5.160;2022-12-24T05:43:31;100736.63;;;10.72;91.77
68230;BME280;55048;52.220;5.160;2022-12-24T05:45:58;100740.81;;;10.68;92.16
68230;BME280;55048;52.220;5.160;2022-12-24T05:48:24;100694.50;;;10.35;92.93
68230;BME280;55048;52.220;5.160;2022-12-24T05:50:49;100714.28;;;10.56;92.59
68230;BME280;55048;52.220;5.160;2022-12-24T05:53:15;100698.84;;;10.41;92.75
68230;BME280;55048;52.220;5.160;2022-12-24T05:55:40;100695.06;;;10.37;93.18
68230;BME280;55048;52.220;5.160;2022-12-24T05:58:05;100725.34;;;10.65;92.87
68230;BME280;55048;52.220;5.160;2022-12-24T06:00:31;100716.03;;;10.51;93.70
68230;BME280;55048;52.220;5.160;2022-12-24T06:02:56;100747.50;;;10.70;93.03
68230;BME280;55048;52.220;5.160;2022-12-24T06:05:22;100726.75;;;10.56;92.87
68230;BME280;55048;52.220;5.160;2022-12-24T06:07:47;100709.03;;;10.44;92.69
68230;BME280;55048;52.220;5.160;2022-12-24T06:10:12;100719.25;;;10.53;92.83
68230;BME280;55048;52.220;5.160;2022-12-24T06:12:38;100716.50;;;10.47;92.98
68230;BME280;55048;52.220;5.160;2022-12-24T06:15:04;100733.84;;;10.50;93.27
68230;BME280;55048;52.220;5.160;2022-12-24T06:17:30;100672.63;;;10.05;93.14
68230;BME280;55048;52.220;5.160;2022-12-24T06:19:55;100730.09;;;10.34;93.50
68230;BME280;55048;52.220;5.160;2022-12-24T06:22:20;100753.81;;;10.53;94.07
68230;BME280;55048;52.220;5.160;2022-12-24T06:24:46;100755.75;;;10.40;95.15
68230;BME280;55048;52.220;5.160;2022-12-24T06:27:11;100753.59;;;10.54;94.16
68230;BME280;55048;52.220;5.160;2022-12-24T06:29:36;100747.16;;;10.50;94.02
68230;BME280;55048;52.220;5.160;2022-12-24T06:32:02;100751.88;;;10.48;94.27
68230;BME280;55048;52.220;5.160;2022-12-24T06:34:27;100774.16;;;10.59;94.17
68230;BME280;55048;52.220;5.160;2022-12-24T06:36:53;100746.81;;;10.46;93.79
68230;BME280;55048;52.220;5.160;2022-12-24T06:39:18;100746.00;;;10.46;93.94
68230;BME280;55048;52.220;5.160;2022-12-24T06:41:44;100757.28;;;10.53;94.06
68230;BME280;55048;52.220;5.160;2022-12-24T06:44:09;100768.97;;;10.52;94.21
68230;BME280;55048;52.220;5.160;2022-12-24T06:46:34;100767.13;;;10.53;94.04
68230;BME280;55048;52.220;5.160;2022-12-24T06:49:00;100772.53;;;10.58;93.90
68230;BME280;55048;52.220;5.160;2022-12-24T06:51:25;100763.09;;;10.50;93.62
68230;BME280;55048;52.220;5.160;2022-12-24T06:53:51;100803.94;;;10.72;93.31
68230;BME280;55048;52.220;5.160;2022-12-24T06:56:19;100756.38;;;10.47;93.29
68230;BME280;55048;52.220;5.160;2022-12-24T06:58:44;100752.13;;;10.46;93.16
68230;BME280;55048;52.220;5.160;2022-12-24T07:01:13;100781.75;;;10.67;92.93
68230;BME280;55048;52.220;5.160;2022-12-24T07:03:39;100803.09;;;10.72;92.90
68230;BME280;55048;52.220;5.160;2022-12-24T07:06:05;100789.88;;;10.60;92.79
68230;BME280;55048;52.220;5.160;2022-12-24T07:08:31;100783.25;;;10.63;92.87
68230;BME280;55048;52.220;5.160;2022-12-24T07:10:58;100810.44;;;10.65;93.09
68230;BME280;55048;52.220;5.160;2022-12-24T07:13:24;100787.09;;;10.27;94.25
68230;BME280;55048;52.220;5.160;2022-12-24T07:15:57;100800.78;;;10.47;93.23
68230;BME280;55048;52.220;5.160;2022-12-24T07:18:23;100799.63;;;10.55;92.64
68230;BME280;55048;52.220;5.160;2022-12-24T07:20:48;100802.28;;;10.55;92.77
68230;BME280;55048;52.220;5.160;2022-12-24T07:23:13;100804.13;;;10.54;93.21
68230;BME280;55048;52.220;5.160;2022-12-24T07:25:41;100809.97;;;10.68;92.37
68230;BME280;55048;52.220;5.160;2022-12-24T07:28:07;100772.22;;;10.54;91.81
68230;BME280;55048;52.220;5.160;2022-12-24T07:30:32;100761.16;;;10.45;91.72
68230;BME280;55048;52.220;5.160;2022-12-24T07:32:58;100810.06;;;10.73;91.68
68230;BME280;55048;52.220;5.160;2022-12-24T07:35:23;100802.00;;;10.68;91.81
68230;BME280;55048;52.220;5.160;2022-12-24T07:37:48;100817.13;;;10.67;91.62
68230;BME280;55048;52.220;5.160;2022-12-24T07:40:14;100859.19;;;10.82;91.46
68230;BME280;55048;52.220;5.160;2022-12-24T07:42:39;100838.75;;;10.71;91.27
68230;BME280;55048;52.220;5.160;2022-12-24T07:45:05;100836.44;;;10.63;91.23
68230;BME280;55048;52.220;5.160;2022-12-24T07:47:31;100870.94;;;10.86;91.42
68230;BME280;55048;52.220;5.160;2022-12-24T07:49:56;100802.56;;;10.30;91.20
68230;BME280;55048;52.220;5.160;2022-12-24T07:52:21;100850.44;;;10.58;91.00
68230;BME280;55048;52.220;5.160;2022-12-24T07:54:47;100882.81;;;10.67;91.84
68230;BME280;55048;52.220;5.160;2022-12-24T07:57:12;100871.84;;;10.63;91.46
68230;BME280;55048;52.220;5.160;2022-12-24T07:59:38;100861.59;;;10.55;91.82
68230;BME280;55048;52.220;5.160;2022-12-24T08:02:03;100852.91;;;10.48;91.36
68230;BME280;55048;52.220;5.160;2022-12-24T08:04:32;100897.41;;;10.64;92.02
68230;BME280;55048;52.220;5.160;2022-12-24T08:07:01;100869.81;;;10.42;92.10
68230;BME280;55048;52.220;5.160;2022-12-24T08:09:27;100898.91;;;10.60;91.72
68230;BME280;55048;52.220;5.160;2022-12-24T08:11:52;100902.16;;;10.51;92.75
68230;BME280;55048;52.220;5.160;2022-12-24T08:14:18;100918.09;;;10.62;92.34
68230;BME280;55048;52.220;5.160;2022-12-24T08:16:44;100882.16;;;10.48;91.59
68230;BME280;55048;52.220;5.160;2022-12-24T08:19:09;100912.22;;;10.60;91.56
68230;BME280;55048;52.220;5.160;2022-12-24T08:21:34;100910.00;;;10.57;91.56
68230;BME280;55048;52.220;5.160;2022-12-24T08:24:00;100887.97;;;10.45;91.18
68230;BME280;55048;52.220;5.160;2022-12-24T08:26:25;100940.41;;;10.73;91.03
68230;BME280;55048;52.220;5.160;2022-12-24T08:28:50;100932.09;;;10.69;91.09
68230;BME280;55048;52.220;5.160;2022-12-24T08:31:16;100927.94;;;10.62;91.04
68230;BME280;55048;52.220;5.160;2022-12-24T08:33:41;100933.00;;;10.75;90.85
68230;BME280;55048;52.220;5.160;2022-12-24T08:36:07;100916.38;;;10.68;90.42
68230;BME280;55048;52.220;5.160;2022-12-24T08:38:33;100930.13;;;10.65;90.70
68230;BME280;55048;52.220;5.160;2022-12-24T08:40:58;100917.53;;;10.60;90.50
68230;BME280;55048;52.220;5.160;2022-12-24T08:43:23;100958.09;;;10.79;90.59
68230;BME280;55048;52.220;5.160;2022-12-24T08:45:51;100955.56;;;10.72;90.83
68230;BME280;55048;52.220;5.160;2022-12-24T08:48:17;100941.22;;;10.62;90.83
68230;BME280;55048;52.220;5.160;2022-12-24T08:50:42;100946.88;;;10.65;90.77
68230;BME280;55048;52.220;5.160;2022-12-24T08:53:08;100937.50;;;10.63;90.81
68230;BME280;55048;52.220;5.160;2022-12-24T08:55:34;100979.22;;;10.86;90.57
68230;BME280;55048;52.220;5.160;2022-12-24T08:58:00;100977.38;;;10.86;90.51
68230;BME280;55048;52.220;5.160;2022-12-24T09:00:26;100975.41;;;10.82;90.55
68230;BME280;55048;52.220;5.160;2022-12-24T09:02:51;100978.22;;;10.87;90.06
68230;BME280;55048;52.220;5.160;2022-12-24T09:05:17;100981.31;;;10.84;90.77
68230;BME280;55048;52.220;5.160;2022-12-24T09:07:42;100957.28;;;10.67;90.64
68230;BME280;55048;52.220;5.160;2022-12-24T09:10:09;100996.25;;;10.85;90.92
68230;BME280;55048;52.220;5.160;2022-12-24T09:12:34;100973.81;;;10.81;90.26
68230;BME280;55048;52.220;5.160;2022-12-24T09:15:00;100977.16;;;10.76;90.37
68230;BME280;55048;52.220;5.160;2022-12-24T09:17:25;100967.25;;;10.60;90.63
68230;BME280;55048;52.220;5.160;2022-12-24T09:19:51;101008.84;;;10.89;90.66
68230;BME280;55048;52.220;5.160;2022-12-24T09:22:16;100944.13;;;10.48;90.57
68230;BME280;55048;52.220;5.160;2022-12-24T09:24:41;100980.78;;;10.70;90.40
68230;BME280;55048;52.220;5.160;2022-12-24T09:27:07;101005.38;;;10.89;89.95
68230;BME280;55048;52.220;5.160;2022-12-24T09:29:32;100998.00;;;10.79;90.65
68230;BME280;55048;52.220;5.160;2022-12-24T09:31:58;101010.34;;;10.97;90.46
68230;BME280;55048;52.220;5.160;2022-12-24T09:34:24;101022.00;;;11.08;90.07
68230;BME280;55048;52.220;5.160;2022-12-24T09:36:50;101011.50;;;11.01;90.27
68230;BME280;55048;52.220;5.160;2022-12-24T09:39:18;101028.00;;;11.15;89.92
68230;BME280;55048;52.220;5.160;2022-12-24T09:41:57;101019.47;;;11.01;90.73
68230;BME280;55048;52.220;5.160;2022-12-24T09:47:04;101014.81;;;11.08;89.74
68230;BME280;55048;52.220;5.160;2022-12-24T09:49:39;101011.16;;;10.97;89.72
68230;BME280;55048;52.220;5.160;2022-12-24T09:52:11;101044.44;;;11.12;90.60
68230;BME280;55048;52.220;5.160;2022-12-24T09:54:43;101016.56;;;11.03;89.38
68230;BME280;55048;52.220;5.160;2022-12-24T09:57:33;101045.81;;;11.26;89.30
68230;BME280;55048;52.220;5.160;2022-12-24T10:00:00;101008.59;;;11.03;89.28
68230;BME280;55048;52.220;5.160;2022-12-24T10:02:26;101041.66;;;11.18;88.99
68230;BME280;55048;52.220;5.160;2022-12-24T10:04:53;101057.34;;;11.32;88.97
68230;BME280;55048;52.220;5.160;2022-12-24T10:13:01;101058.06;;;11.27;88.65
68230;BME280;55048;52.220;5.160;2022-12-24T10:15:36;101058.38;;;11.42;88.41
68230;BME280;55048;52.220;5.160;2022-12-24T10:20:47;101065.66;;;11.47;88.00
68230;BME280;55048;52.220;5.160;2022-12-24T10:23:22;101044.25;;;11.42;87.73
68230;BME280;55048;52.220;5.160;2022-12-24T10:28:21;101056.91;;;11.63;87.47
68230;BME280;55048;52.220;5.160;2022-12-24T10:30:53;101053.16;;;11.47;87.52
68230;BME280;55048;52.220;5.160;2022-12-24T10:33:28;101022.53;;;11.33;87.41
68230;BME280;55048;52.220;5.160;2022-12-24T10:35:56;101057.63;;;11.59;86.99
68230;BME280;55048;52.220;5.160;2022-12-24T10:38:22;101074.03;;;11.67;87.00
68230;BME280;55048;52.220;5.160;2022-12-24T10:40:53;101076.72;;;11.67;86.77
68230;BME280;55048;52.220;5.160;2022-12-24T10:43:23;101059.16;;;11.55;86.37
68230;BME280;55048;52.220;5.160;2022-12-24T10:46:04;101050.88;;;11.39;86.49
68230;BME280;55048;52.220;5.160;2022-12-24T10:49:00;101078.59;;;11.55;86.95
68230;BME280;55048;52.220;5.160;2022-12-24T10:51:41;101041.88;;;11.29;87.40
68230;BME280;55048;52.220;5.160;2022-12-24T10:54:20;101064.97;;;11.40;86.83
68230;BME280;55048;52.220;5.160;2022-12-24T10:56:51;101060.66;;;11.50;86.72
68230;BME280;55048;52.220;5.160;2022-12-24T11:02:30;101028.69;;;11.22;86.59
68230;BME280;55048;52.220;5.160;2022-12-24T11:04:56;101052.47;;;11.40;86.57
68230;BME280;55048;52.220;5.160;2022-12-24T11:07:23;101085.53;;;11.56;85.96
68230;BME280;55048;52.220;5.160;2022-12-24T11:12:33;101094.91;;;11.70;86.34
68230;BME280;55048;52.220;5.160;2022-12-24T11:15:17;101086.66;;;11.72;85.70
68230;BME280;55048;52.220;5.160;2022-12-24T11:18:16;101095.91;;;11.69;86.02
68230;BME280;55048;52.220;5.160;2022-12-24T11:20:48;101070.69;;;11.60;85.51
68230;BME280;55048;52.220;5.160;2022-12-24T11:23:15;101054.22;;;11.35;85.43
68230;BME280;55048;52.220;5.160;2022-12-24T11:25:46;101077.75;;;11.66;85.43
68230;BME280;55048;52.220;5.160;2022-12-24T11:28:26;101049.53;;;11.54;84.95
68230;BME280;55048;52.220;5.160;2022-12-24T11:31:02;101030.16;;;11.30;84.48
68230;BME280;55048;52.220;5.160;2022-12-24T11:33:29;101034.78;;;11.34;84.32
68230;BME280;55048;52.220;5.160;2022-12-24T11:36:00;101095.59;;;11.66;84.57
68230;BME280;55048;52.220;5.160;2022-12-24T11:38:28;101044.84;;;11.32;84.74
68230;BME280;55048;52.220;5.160;2022-12-24T11:41:12;101059.91;;;11.38;84.85
68230;BME280;55048;52.220;5.160;2022-12-24T11:43:43;101100.94;;;11.66;84.34
68230;BME280;55048;52.220;5.160;2022-12-24T11:51:37;101078.06;;;11.41;84.17
68230;BME280;55048;52.220;5.160;2022-12-24T11:54:16;101107.69;;;11.57;83.94
68230;BME280;55048;52.220;5.160;2022-12-24T11:56:54;101111.81;;;11.64;84.04
68230;BME280;55048;52.220;5.160;2022-12-24T12:04:33;101114.66;;;11.74;83.74
68230;BME280;55048;52.220;5.160;2022-12-24T12:09:46;101121.84;;;11.74;83.82
68230;BME280;55048;52.220;5.160;2022-12-24T12:12:26;101094.22;;;11.63;83.55
68230;BME280;55048;52.220;5.160;2022-12-24T12:15:12;101127.75;;;11.88;83.20
68230;BME280;55048;52.220;5.160;2022-12-24T12:20:29;101141.06;;;11.88;82.36
68230;BME280;55048;52.220;5.160;2022-12-24T12:25:51;101133.66;;;11.78;82.25
68230;BME280;55048;52.220;5.160;2022-12-24T12:28:28;101118.75;;;11.65;82.33
68230;BME280;55048;52.220;5.160;2022-12-24T12:33:49;101142.38;;;11.73;82.07
68230;BME280;55048;52.220;5.160;2022-12-24T12:36:20;101137.41;;;11.65;81.71
68230;BME280;55048;52.220;5.160;2022-12-24T12:38:47;101157.09;;;11.76;82.10
68230;BME280;55048;52.220;5.160;2022-12-24T12:46:51;101144.81;;;11.75;81.51
68230;BME280;55048;52.220;5.160;2022-12-24T12:57:44;101156.59;;;11.79;81.59
68230;BME280;55048;52.220;5.160;2022-12-24T13:00:13;101152.56;;;11.65;81.78
68230;BME280;55048;52.220;5.160;2022-12-24T13:02:52;101173.88;;;11.77;81.39
68230;BME280;55048;52.220;5.160;2022-12-24T13:08:40;101177.34;;;11.77;81.37
68230;BME280;55048;52.220;5.160;2022-12-24T13:21:46;101174.13;;;11.63;81.26
68230;BME280;55048;52.220;5.160;2022-12-24T13:24:27;101154.09;;;11.61;80.96
68230;BME280;55048;52.220;5.160;2022-12-24T13:27:06;101187.66;;;11.73;81.04
68230;BME280;55048;52.220;5.160;2022-12-24T13:30:02;101177.34;;;11.65;80.90
68230;BME280;55048;52.220;5.160;2022-12-24T13:32:47;101195.91;;;11.72;80.80
68230;BME280;55048;52.220;5.160;2022-12-24T13:37:48;101195.66;;;11.73;80.78
68230;BME280;55048;52.220;5.160;2022-12-24T13:50:55;101209.47;;;11.70;79.93
68230;BME280;55048;52.220;5.160;2022-12-24T13:53:38;101215.59;;;11.83;80.11
68230;BME280;55048;52.220;5.160;2022-12-24T13:56:21;101215.59;;;11.83;80.12
68230;BME280;55048;52.220;5.160;2022-12-24T13:58:51;101195.09;;;11.71;79.76
68230;BME280;55048;52.220;5.160;2022-12-24T14:01:22;101222.66;;;11.77;79.90
68230;BME280;55048;52.220;5.160;2022-12-24T14:03:51;101207.25;;;11.56;80.84
68230;BME280;55048;52.220;5.160;2022-12-24T14:06:22;101230.78;;;11.70;80.49
68230;BME280;55048;52.220;5.160;2022-12-24T14:08:52;101194.53;;;11.58;80.21
68230;BME280;55048;52.220;5.160;2022-12-24T14:11:20;101234.56;;;11.74;80.52
68230;BME280;55048;52.220;5.160;2022-12-24T14:18:47;101231.91;;;11.74;80.46
68230;BME280;55048;52.220;5.160;2022-12-24T14:21:26;101221.53;;;11.61;81.29
68230;BME280;55048;52.220;5.160;2022-12-24T14:23:58;101233.31;;;11.65;81.58
68230;BME280;55048;52.220;5.160;2022-12-24T14:26:32;101238.78;;;11.70;81.09
68230;BME280;55048;52.220;5.160;2022-12-24T14:29:14;101216.66;;;11.58;81.04
68230;BME280;55048;52.220;5.160;2022-12-24T14:31:51;101227.41;;;11.63;81.03
68230;BME280;55048;52.220;5.160;2022-12-24T14:34:17;101230.63;;;11.65;81.03
68230;BME280;55048;52.220;5.160;2022-12-24T14:36:43;101236.81;;;11.66;81.19
68230;BME280;55048;52.220;5.160;2022-12-24T14:39:20;101215.63;;;11.36;81.46
68230;BME280;55048;52.220;5.160;2022-12-24T14:44:33;101247.00;;;11.45;81.74
68230;BME280;55048;52.220;5.160;2022-12-24T14:47:19;101251.03;;;11.36;82.07
68230;BME280;55048;52.220;5.160;2022-12-24T14:49:57;101259.63;;;11.38;81.99
68230;BME280;55048;52.220;5.160;2022-12-24T14:52:44;101236.09;;;11.23;82.10
68230;BME280;55048;52.220;5.160;2022-12-24T14:55:43;101255.00;;;11.34;82.04